ADDS METAR Data INFO
IDs: Format: Raw Decoded Include TAF

Data at: 1333 UTC 25 Sep 2017

KCXO 251253Z VRB03KT 5SM BR CLR 22/21 A2991 RMK AO2 SLP125 T02220211
KCXO 251158Z 00000KT 3SM BR CLR 21/20 A2990 RMK AO2 T02060200
KCXO 251153Z 00000KT 1 1/2SM BR FEW006 21/20 A2990 RMK AO2 SLP122 70001 T02060200 10222 20200 53010
KCXO 251146Z 00000KT 2SM BR CLR 20/20 A2990 RMK AO2 VIS 3/4V4 T02000200
KCXO 251131Z 00000KT 1 1/2SM BR CLR 20/19 A2989 RMK AO2 T02000194
KCXO 251102Z 00000KT 2SM BR CLR 20/19 A2989 RMK AO2 VIS 1 1/4V3 T02000194
KCXO 251053Z 00000KT 3SM BR CLR 21/20 A2988 RMK AO2 SLP117 T02060200
KCXO 250958Z AUTO 00000KT 3SM BR FEW013 20/19 A2987 RMK AO2 T02000194
KCXO 250955Z AUTO 07003KT 1 1/4SM BR FEW013 20/19 A2987 RMK AO2 T02000194
KCXO 250953Z AUTO 00000KT 3/4SM BR VV013 20/19 A2987 RMK AO2 SLP112 T02000194
KCXO 250946Z AUTO 00000KT 3/4SM BR VV013 20/19 A2987 RMK AO2 T02000194
KCXO 250936Z AUTO 00000KT 1 3/4SM BR FEW015 21/19 A2987 RMK AO2 T02060194
KCXO 250853Z AUTO 00000KT 5SM BR CLR 21/20 A2987 RMK AO2 SLP110 T02060200 58007
KCXO 250753Z AUTO 00000KT 5SM BR CLR 21/20 A2988 RMK AO2 SLP114 T02110200
KCXO 250653Z AUTO 00000KT 10SM CLR 22/21 A2988 RMK AO2 SLP115 T02220211
KCXO 250553Z AUTO 10003KT 10SM CLR 22/21 A2989 RMK AO2 SLP117 T02220211 10272 20211 403280189 58004
KCXO 250453Z AUTO 10003KT 9SM CLR 22/21 A2989 RMK AO2 SLP119 T02170211
KCXO 250353Z AUTO 00000KT 10SM SCT120 23/22 A2990 RMK AO2 SLP122 T02280217
KCXO 250253Z AUTO 00000KT 10SM BKN100 OVC120 23/22 A2990 RMK AO2 SLP122 T02330222 52011
KCXO 250153Z AUTO 00000KT 10SM OVC100 24/22 A2989 RMK AO2 SLP119 T02440217
KCXO 250053Z 13004KT 10SM FEW095 25/22 A2988 RMK AO2 SLP114 T02500217
KCXO 242353Z 11005KT 10SM BKN095 27/22 A2987 RMK AO2 SLP111 60001 T02720217 10328 20256 53007
KCXO 242253Z 11007KT 10SM CLR 28/22 A2985 RMK AO2 RAE2159 SLP105 P0001 T02830222
KCXO 242153Z 14004KT 10SM -RA SCT042 BKN065 OVC110 27/24 A2985 RMK AO2 RAB32 SLP106 P0000 T02720239
KCXO 242053Z 10007KT 10SM FEW039 32/22 A2985 RMK AO2 SLP103 T03220217 56024
KCXO 241953Z 13006KT 10SM FEW042 FEW060 32/20 A2987 RMK AO2 SLP110 T03220200
KCXO 241853Z 12007KT 080V150 10SM FEW038 32/21 A2989 RMK AO2 SLP119 T03220211
KCXO 241753Z VRB04KT 10SM SCT033 30/22 A2992 RMK AO2 SLP127 T03000217 10311 20194 58005
KCXO 241653Z 15008KT 120V190 10SM BKN023 30/23 A2993 RMK AO2 SLP131 T03000228
KCXO 241553Z 13009KT 10SM BKN018 29/23 A2994 RMK AO2 SLP133 T02890228
KCXO 241453Z 08005KT 10SM CLR 27/23 A2993 RMK AO2 SLP133 T02670233 53013
KCXO 241353Z 09004KT 4SM BR CLR 24/23 A2992 RMK AO2 SLP128 T02390228
KCXO 241348Z 08005KT 3SM BR FEW002 24/23 A2992 RMK AO2
KCXO 241337Z 08005KT 2 1/2SM BR FEW002 23/22 A2991 RMK AO2 T02280222
KCXO 241300Z 00000KT 1 1/2SM BR FEW004 22/21 A2991 RMK AO2 T02170211
KCXO 241253Z 00000KT 2 1/2SM BR SCT004 21/21 A2991 RMK AO2 SLP125 T02060206
KCXO 241231Z 00000KT 2SM MIFG BR SCT004 19/19 A2990 RMK AO2 T01940189
KCXO 241214Z 00000KT 1 1/2SM MIFG BR SCT004 19/19 A2990 RMK AO2 T01940189
KCXO 241203Z 00000KT 3/4SM MIFG BR SCT004 19/19 A2990 RMK AO2 T01940189
KCXO 241153Z 00000KT 1 1/2SM BR SCT004 19/19 A2990 RMK AO2 SLP120 T01940189 10211 20189 55000
KCXO 241148Z 00000KT 1 3/4SM BR SCT004 19/19 A2989 RMK AO2
KCXO 241131Z 00000KT 5SM BR SCT004 19/19 A2990 RMK AO2 T01940189
KCXO 241117Z 31003KT 2 1/2SM BR SCT003 BKN025 19/19 A2990 RMK AO2 T01940189
KCXO 241053Z 00000KT 4SM BR FEW004 19/19 A2989 RMK AO2 SLP120 T01940194
KCXO 241039Z 00000KT 2 1/2SM BR SCT003 SCT026 19/19 A2989 RMK AO2 T01940194
KCXO 241027Z AUTO 00000KT 3/4SM BR VV003 19/19 A2989 RMK AO2 T01940194
KCXO 241019Z AUTO 00000KT 2 1/2SM BR OVC003 19/19 A2989 RMK AO2 T01940194
KCXO 241000Z AUTO 00000KT 3/4SM BR VV003 19/19 A2989 RMK AO2 T01940194
KCXO 240953Z AUTO 00000KT 1/4SM FG VV003 19/19 A2989 RMK AO2 SLP119 T01940189
KCXO 240906Z AUTO 00000KT 1/4SM FG VV004 20/19 A2990 RMK AO2 T02000194
KCXO 240853Z AUTO 00000KT 1/2SM FG VV004 20/19 A2990 RMK AO2 SLP120 T02000194 50001
KCXO 240844Z AUTO 00000KT 1/2SM FG VV004 20/20 A2990 RMK AO2 T02000200
KCXO 240836Z AUTO 00000KT 3/4SM BR VV005 20/20 A2990 RMK AO2 T02000200
KCXO 240833Z AUTO 00000KT 1 1/2SM BR FEW005 20/19 A2989 RMK AO2 T02000194
KCXO 240753Z AUTO 00000KT 3SM BR CLR 21/20 A2990 RMK AO2 SLP121 T02060200
KCXO 240653Z AUTO 00000KT 6SM BR CLR 21/21 A2990 RMK AO2 SLP121 T02110206
KCXO 240553Z AUTO 10004KT 7SM CLR 22/22 A2990 RMK AO2 SLP119 T02220217 10261 20206 403280194 58002
KCXO 240153Z 00000KT 10SM CLR 23/21 A2989